sensor_id;sensor_type;location;lat;lon;timestamp;temperature;humidity
53904;DHT22;39812;52.430;16.936;2023-05-14T00:01:21;10.90;74.60
53904;DHT22;39812;52.430;16.936;2023-05-14T00:03:46;10.90;74.20
53904;DHT22;39812;52.430;16.936;2023-05-14T00:06:12;10.90;74.50
53904;DHT22;39812;52.430;16.936;2023-05-14T00:08:37;10.90;74.30
53904;DHT22;39812;52.430;16.936;2023-05-14T00:11:03;10.80;74.40
53904;DHT22;39812;52.430;16.936;2023-05-14T00:13:29;10.80;75.50
53904;DHT22;39812;52.430;16.936;2023-05-14T00:15:54;10.80;75.40
53904;DHT22;39812;52.430;16.936;2023-05-14T00:18:20;10.70;76.40
53904;DHT22;39812;52.430;16.936;2023-05-14T00:20:45;10.70;76.10
53904;DHT22;39812;52.430;16.936;2023-05-14T00:23:11;10.70;76.20
53904;DHT22;39812;52.430;16.936;2023-05-14T00:25:37;10.60;76.50
53904;DHT22;39812;52.430;16.936;2023-05-14T00:28:03;10.60;76.80
53904;DHT22;39812;52.430;16.936;2023-05-14T00:30:28;10.50;76.50
53904;DHT22;39812;52.430;16.936;2023-05-14T00:32:54;10.50;77.10
53904;DHT22;39812;52.430;16.936;2023-05-14T00:35:20;10.50;78.00
53904;DHT22;39812;52.430;16.936;2023-05-14T00:37:46;10.50;78.50
53904;DHT22;39812;52.430;16.936;2023-05-14T00:40:12;10.60;78.10
53904;DHT22;39812;52.430;16.936;2023-05-14T00:42:41;10.60;78.40
53904;DHT22;39812;52.430;16.936;2023-05-14T00:45:07;10.50;79.10
53904;DHT22;39812;52.430;16.936;2023-05-14T00:47:32;10.50;78.90
53904;DHT22;39812;52.430;16.936;2023-05-14T00:50:02;10.30;79.10
53904;DHT22;39812;52.430;16.936;2023-05-14T00:52:28;10.20;80.00
53904;DHT22;39812;52.430;16.936;2023-05-14T00:54:53;10.10;80.60
53904;DHT22;39812;52.430;16.936;2023-05-14T00:57:20;10.10;80.30
53904;DHT22;39812;52.430;16.936;2023-05-14T00:59:46;10.00;80.90
53904;DHT22;39812;52.430;16.936;2023-05-14T01:02:11;9.90;80.90
53904;DHT22;39812;52.430;16.936;2023-05-14T01:04:37;9.90;81.00
53904;DHT22;39812;52.430;16.936;2023-05-14T01:07:15;9.90;81.50
53904;DHT22;39812;52.430;16.936;2023-05-14T01:09:52;9.80;81.90
53904;DHT22;39812;52.430;16.936;2023-05-14T01:15:25;9.70;82.50
53904;DHT22;39812;52.430;16.936;2023-05-14T01:17:55;9.60;83.30
53904;DHT22;39812;52.430;16.936;2023-05-14T01:20:22;9.50;83.10
53904;DHT22;39812;52.430;16.936;2023-05-14T01:22:47;9.50;83.10
53904;DHT22;39812;52.430;16.936;2023-05-14T01:25:13;9.40;83.80
53904;DHT22;39812;52.430;16.936;2023-05-14T01:30:24;9.30;84.60
53904;DHT22;39812;52.430;16.936;2023-05-14T01:32:55;9.20;84.90
53904;DHT22;39812;52.430;16.936;2023-05-14T01:35:25;9.30;84.50
53904;DHT22;39812;52.430;16.936;2023-05-14T01:37:53;9.30;84.30
53904;DHT22;39812;52.430;16.936;2023-05-14T01:40:19;9.30;84.10
53904;DHT22;39812;52.430;16.936;2023-05-14T01:42:46;9.30;84.40
53904;DHT22;39812;52.430;16.936;2023-05-14T01:45:12;9.20;84.70
53904;DHT22;39812;52.430;16.936;2023-05-14T01:47:37;9.20;85.70
53904;DHT22;39812;52.430;16.936;2023-05-14T01:50:03;9.20;85.90
53904;DHT22;39812;52.430;16.936;2023-05-14T01:52:29;9.20;86.80
53904;DHT22;39812;52.430;16.936;2023-05-14T01:54:54;9.20;87.00
53904;DHT22;39812;52.430;16.936;2023-05-14T01:57:20;9.20;86.40
53904;DHT22;39812;52.430;16.936;2023-05-14T01:59:46;9.30;86.30
53904;DHT22;39812;52.430;16.936;2023-05-14T02:02:11;9.40;86.00
53904;DHT22;39812;52.430;16.936;2023-05-14T02:04:37;9.50;86.50
53904;DHT22;39812;52.430;16.936;2023-05-14T02:07:03;9.50;86.60
53904;DHT22;39812;52.430;16.936;2023-05-14T02:09:28;9.50;86.40
53904;DHT22;39812;52.430;16.936;2023-05-14T02:11:54;9.60;86.50
53904;DHT22;39812;52.430;16.936;2023-05-14T02:14:20;9.60;86.70
53904;DHT22;39812;52.430;16.936;2023-05-14T02:16:46;9.60;86.40
53904;DHT22;39812;52.430;16.936;2023-05-14T02:19:11;9.60;86.30
53904;DHT22;39812;52.430;16.936;2023-05-14T02:21:37;9.50;86.40
53904;DHT22;39812;52.430;16.936;2023-05-14T02:24:03;9.60;86.80
53904;DHT22;39812;52.430;16.936;2023-05-14T02:26:28;9.60;86.80
53904;DHT22;39812;52.430;16.936;2023-05-14T02:28:54;9.60;86.90
53904;DHT22;39812;52.430;16.936;2023-05-14T02:31:19;9.50;87.00
53904;DHT22;39812;52.430;16.936;2023-05-14T02:33:45;9.50;87.30
53904;DHT22;39812;52.430;16.936;2023-05-14T02:36:11;9.50;87.60
53904;DHT22;39812;52.430;16.936;2023-05-14T02:38:37;9.40;88.30
53904;DHT22;39812;52.430;16.936;2023-05-14T02:41:02;9.40;88.80
53904;DHT22;39812;52.430;16.936;2023-05-14T02:43:28;9.40;89.00
53904;DHT22;39812;52.430;16.936;2023-05-14T02:45:54;9.40;89.20
53904;DHT22;39812;52.430;16.936;2023-05-14T02:48:19;9.40;89.50
53904;DHT22;39812;52.430;16.936;2023-05-14T02:50:45;9.20;89.90
53904;DHT22;39812;52.430;16.936;2023-05-14T02:53:11;9.10;90.20
53904;DHT22;39812;52.430;16.936;2023-05-14T02:55:36;9.00;90.40
53904;DHT22;39812;52.430;16.936;2023-05-14T02:58:02;8.90;90.80
53904;DHT22;39812;52.430;16.936;2023-05-14T03:00:28;8.90;91.00
53904;DHT22;39812;52.430;16.936;2023-05-14T03:02:53;9.20;91.20
53904;DHT22;39812;52.430;16.936;2023-05-14T03:05:19;9.10;91.00
53904;DHT22;39812;52.430;16.936;2023-05-14T03:07:45;9.10;91.20
53904;DHT22;39812;52.430;16.936;2023-05-14T03:10:10;9.10;91.60
53904;DHT22;39812;52.430;16.936;2023-05-14T03:12:36;9.10;91.70
53904;DHT22;39812;52.430;16.936;2023-05-14T03:15:02;8.90;91.90
53904;DHT22;39812;52.430;16.936;2023-05-14T03:17:28;8.90;92.70
53904;DHT22;39812;52.430;16.936;2023-05-14T03:19:53;8.70;93.10
53904;DHT22;39812;52.430;16.936;2023-05-14T03:22:19;8.70;93.70
53904;DHT22;39812;52.430;16.936;2023-05-14T03:24:45;8.80;93.70
53904;DHT22;39812;52.430;16.936;2023-05-14T03:27:10;8.80;93.90
53904;DHT22;39812;52.430;16.936;2023-05-14T03:29:36;8.90;93.90
53904;DHT22;39812;52.430;16.936;2023-05-14T03:32:02;9.00;93.80
53904;DHT22;39812;52.430;16.936;2023-05-14T03:34:27;9.10;93.90
53904;DHT22;39812;52.430;16.936;2023-05-14T03:36:53;9.20;93.90
53904;DHT22;39812;52.430;16.936;2023-05-14T03:39:18;9.30;93.80
53904;DHT22;39812;52.430;16.936;2023-05-14T03:41:45;9.40;93.70
53904;DHT22;39812;52.430;16.936;2023-05-14T03:44:11;9.50;93.50
53904;DHT22;39812;52.430;16.936;2023-05-14T03:46:37;9.60;93.40
53904;DHT22;39812;52.430;16.936;2023-05-14T03:49:02;9.80;93.20
53904;DHT22;39812;52.430;16.936;2023-05-14T03:51:28;10.00;92.70
53904;DHT22;39812;52.430;16.936;2023-05-14T03:53:54;10.30;92.30
53904;DHT22;39812;52.430;16.936;2023-05-14T03:56:19;10.50;91.80
53904;DHT22;39812;52.430;16.936;2023-05-14T03:58:45;10.60;91.30
53904;DHT22;39812;52.430;16.936;2023-05-14T04:01:11;10.90;90.80
53904;DHT22;39812;52.430;16.936;2023-05-14T04:03:36;11.20;90.10
53904;DHT22;39812;52.430;16.936;2023-05-14T04:06:02;11.20;89.20
53904;DHT22;39812;52.430;16.936;2023-05-14T04:08:27;11.20;88.60
53904;DHT22;39812;52.430;16.936;2023-05-14T04:10:53;11.10;88.60
53904;DHT22;39812;52.430;16.936;2023-05-14T04:13:19;11.00;89.10
53904;DHT22;39812;52.430;16.936;2023-05-14T04:15:44;11.00;89.80
53904;DHT22;39812;52.430;16.936;2023-05-14T04:18:10;11.00;89.90
53904;DHT22;39812;52.430;16.936;2023-05-14T04:20:36;10.90;89.90
53904;DHT22;39812;52.430;16.936;2023-05-14T04:23:01;11.00;89.70
53904;DHT22;39812;52.430;16.936;2023-05-14T04:25:27;11.00;89.50
53904;DHT22;39812;52.430;16.936;2023-05-14T04:27:53;11.00;89.20
53904;DHT22;39812;52.430;16.936;2023-05-14T04:30:18;11.10;89.10
53904;DHT22;39812;52.430;16.936;2023-05-14T04:32:44;11.20;88.60
53904;DHT22;39812;52.430;16.936;2023-05-14T04:35:10;11.20;88.30
53904;DHT22;39812;52.430;16.936;2023-05-14T04:37:37;11.40;88.00
53904;DHT22;39812;52.430;16.936;2023-05-14T04:40:04;11.60;87.60
53904;DHT22;39812;52.430;16.936;2023-05-14T04:42:31;11.90;86.60
53904;DHT22;39812;52.430;16.936;2023-05-14T04:44:56;12.10;85.50
53904;DHT22;39812;52.430;16.936;2023-05-14T04:47:23;12.40;84.70
53904;DHT22;39812;52.430;16.936;2023-05-14T04:49:48;12.70;83.70
53904;DHT22;39812;52.430;16.936;2023-05-14T04:52:14;13.00;82.50
53904;DHT22;39812;52.430;16.936;2023-05-14T04:54:40;13.30;81.60
53904;DHT22;39812;52.430;16.936;2023-05-14T04:57:05;13.70;80.30
53904;DHT22;39812;52.430;16.936;2023-05-14T04:59:31;14.00;78.80
53904;DHT22;39812;52.430;16.936;2023-05-14T05:01:57;14.30;77.90
53904;DHT22;39812;52.430;16.936;2023-05-14T05:04:23;14.40;76.90
53904;DHT22;39812;52.430;16.936;2023-05-14T05:06:49;14.60;75.90
53904;DHT22;39812;52.430;16.936;2023-05-14T05:09:16;14.90;75.20
53904;DHT22;39812;52.430;16.936;2023-05-14T05:11:41;14.90;75.10
53904;DHT22;39812;52.430;16.936;2023-05-14T05:14:07;15.00;74.80
53904;DHT22;39812;52.430;16.936;2023-05-14T05:16:33;15.10;74.70
53904;DHT22;39812;52.430;16.936;2023-05-14T05:18:58;15.00;74.90
53904;DHT22;39812;52.430;16.936;2023-05-14T05:21:24;14.90;74.90
53904;DHT22;39812;52.430;16.936;2023-05-14T05:23:50;14.80;75.40
53904;DHT22;39812;52.430;16.936;2023-05-14T05:26:15;14.70;75.60
53904;DHT22;39812;52.430;16.936;2023-05-14T05:28:41;14.70;76.20
53904;DHT22;39812;52.430;16.936;2023-05-14T05:31:06;14.90;76.00
53904;DHT22;39812;52.430;16.936;2023-05-14T05:33:33;15.00;75.70
53904;DHT22;39812;52.430;16.936;2023-05-14T05:35:59;15.20;75.40
53904;DHT22;39812;52.430;16.936;2023-05-14T05:38:24;15.40;75.10
53904;DHT22;39812;52.430;16.936;2023-05-14T05:40:50;15.50;74.70
53904;DHT22;39812;52.430;16.936;2023-05-14T05:43:16;15.80;73.80
53904;DHT22;39812;52.430;16.936;2023-05-14T05:45:42;16.10;72.80
53904;DHT22;39812;52.430;16.936;2023-05-14T05:48:08;16.50;71.90
53904;DHT22;39812;52.430;16.936;2023-05-14T05:50:33;16.60;70.70
53904;DHT22;39812;52.430;16.936;2023-05-14T05:52:59;16.70;70.40
53904;DHT22;39812;52.430;16.936;2023-05-14T05:55:24;16.90;70.10
53904;DHT22;39812;52.430;16.936;2023-05-14T05:57:50;17.00;69.60
53904;DHT22;39812;52.430;16.936;2023-05-14T06:00:16;17.10;69.60
53904;DHT22;39812;52.430;16.936;2023-05-14T06:02:42;17.20;69.30
53904;DHT22;39812;52.430;16.936;2023-05-14T06:05:09;17.40;69.20
53904;DHT22;39812;52.430;16.936;2023-05-14T06:07:35;17.60;68.80
53904;DHT22;39812;52.430;16.936;2023-05-14T06:10:00;17.80;68.20
53904;DHT22;39812;52.430;16.936;2023-05-14T06:12:26;17.80;68.10
53904;DHT22;39812;52.430;16.936;2023-05-14T06:14:53;17.90;68.00
53904;DHT22;39812;52.430;16.936;2023-05-14T06:17:23;18.00;67.80
53904;DHT22;39812;52.430;16.936;2023-05-14T06:19:50;18.10;67.70
53904;DHT22;39812;52.430;16.936;2023-05-14T06:22:15;18.20;66.90
53904;DHT22;39812;52.430;16.936;2023-05-14T06:24:41;18.20;66.70
53904;DHT22;39812;52.430;16.936;2023-05-14T06:27:06;18.10;67.00
53904;DHT22;39812;52.430;16.936;2023-05-14T06:29:32;18.00;66.90
53904;DHT22;39812;52.430;16.936;2023-05-14T06:32:02;17.70;67.20
53904;DHT22;39812;52.430;16.936;2023-05-14T06:34:28;17.50;67.70
53904;DHT22;39812;52.430;16.936;2023-05-14T06:36:54;17.20;67.70
53904;DHT22;39812;52.430;16.936;2023-05-14T06:39:20;17.10;68.50
53904;DHT22;39812;52.430;16.936;2023-05-14T06:41:45;17.40;68.50
53904;DHT22;39812;52.430;16.936;2023-05-14T06:44:11;17.80;67.40
53904;DHT22;39812;52.430;16.936;2023-05-14T06:46:37;18.10;66.70
53904;DHT22;39812;52.430;16.936;2023-05-14T06:49:02;18.40;65.80
53904;DHT22;39812;52.430;16.936;2023-05-14T06:51:28;18.70;65.00
53904;DHT22;39812;52.430;16.936;2023-05-14T06:53:57;19.20;64.00
53904;DHT22;39812;52.430;16.936;2023-05-14T06:56:22;19.50;63.30
53904;DHT22;39812;52.430;16.936;2023-05-14T06:58:48;19.50;62.00
53904;DHT22;39812;52.430;16.936;2023-05-14T07:01:14;19.50;61.80
53904;DHT22;39812;52.430;16.936;2023-05-14T07:03:40;19.40;62.20
53904;DHT22;39812;52.430;16.936;2023-05-14T07:06:06;19.30;62.70
53904;DHT22;39812;52.430;16.936;2023-05-14T07:08:31;19.00;62.90
53904;DHT22;39812;52.430;16.936;2023-05-14T07:10:57;18.70;63.60
53904;DHT22;39812;52.430;16.936;2023-05-14T07:13:23;18.60;64.30
53904;DHT22;39812;52.430;16.936;2023-05-14T07:15:48;18.40;64.90
53904;DHT22;39812;52.430;16.936;2023-05-14T07:18:15;18.30;65.20
53904;DHT22;39812;52.430;16.936;2023-05-14T07:20:41;18.10;65.70
53904;DHT22;39812;52.430;16.936;2023-05-14T07:23:06;18.00;66.20
53904;DHT22;39812;52.430;16.936;2023-05-14T07:25:32;17.90;65.30
53904;DHT22;39812;52.430;16.936;2023-05-14T07:27:58;17.90;64.50
53904;DHT22;39812;52.430;16.936;2023-05-14T07:30:23;17.90;64.10
53904;DHT22;39812;52.430;16.936;2023-05-14T07:32:49;17.90;64.00
53904;DHT22;39812;52.430;16.936;2023-05-14T07:35:15;18.00;63.80
53904;DHT22;39812;52.430;16.936;2023-05-14T07:37:40;18.10;63.80
53904;DHT22;39812;52.430;16.936;2023-05-14T07:40:07;18.30;64.00
53904;DHT22;39812;52.430;16.936;2023-05-14T07:42:33;18.50;63.90
53904;DHT22;39812;52.430;16.936;2023-05-14T07:44:59;18.60;62.80
53904;DHT22;39812;52.430;16.936;2023-05-14T07:47:24;18.70;63.90
53904;DHT22;39812;52.430;16.936;2023-05-14T07:49:53;18.80;62.40
53904;DHT22;39812;52.430;16.936;2023-05-14T07:52:19;18.90;62.20
53904;DHT22;39812;52.430;16.936;2023-05-14T07:54:45;18.90;61.70
53904;DHT22;39812;52.430;16.936;2023-05-14T07:57:10;18.80;61.50
53904;DHT22;39812;52.430;16.936;2023-05-14T07:59:36;18.80;61.90
53904;DHT22;39812;52.430;16.936;2023-05-14T08:02:01;18.90;61.90
53904;DHT22;39812;52.430;16.936;2023-05-14T08:04:27;19.00;60.70
53904;DHT22;39812;52.430;16.936;2023-05-14T08:06:53;19.20;59.70
53904;DHT22;39812;52.430;16.936;2023-05-14T08:09:19;19.30;59.90
53904;DHT22;39812;52.430;16.936;2023-05-14T08:11:45;19.50;59.50
53904;DHT22;39812;52.430;16.936;2023-05-14T08:14:10;19.60;59.70
53904;DHT22;39812;52.430;16.936;2023-05-14T08:16:36;19.70;59.10
53904;DHT22;39812;52.430;16.936;2023-05-14T08:19:03;20.00;58.60
53904;DHT22;39812;52.430;16.936;2023-05-14T08:21:28;20.00;58.90
53904;DHT22;39812;52.430;16.936;2023-05-14T08:23:54;20.00;59.00
53904;DHT22;39812;52.430;16.936;2023-05-14T08:26:20;19.90;58.40
53904;DHT22;39812;52.430;16.936;2023-05-14T08:28:46;19.90;58.70
53904;DHT22;39812;52.430;16.936;2023-05-14T08:31:11;20.00;58.70
53904;DHT22;39812;52.430;16.936;2023-05-14T08:33:39;20.10;58.20
53904;DHT22;39812;52.430;16.936;2023-05-14T08:36:05;20.30;58.40
53904;DHT22;39812;52.430;16.936;2023-05-14T08:38:31;20.40;57.90
53904;DHT22;39812;52.430;16.936;2023-05-14T08:40:57;20.80;57.40
53904;DHT22;39812;52.430;16.936;2023-05-14T08:43:26;21.20;56.20
53904;DHT22;39812;52.430;16.936;2023-05-14T08:45:57;21.30;56.10
53904;DHT22;39812;52.430;16.936;2023-05-14T08:48:25;21.30;55.70
53904;DHT22;39812;52.430;16.936;2023-05-14T08:50:53;21.10;54.90
53904;DHT22;39812;52.430;16.936;2023-05-14T08:53:19;20.80;56.20
53904;DHT22;39812;52.430;16.936;2023-05-14T08:55:45;20.50;55.20
53904;DHT22;39812;52.430;16.936;2023-05-14T08:58:12;20.40;55.30
53904;DHT22;39812;52.430;16.936;2023-05-14T09:00:38;20.60;55.70
53904;DHT22;39812;52.430;16.936;2023-05-14T09:03:04;20.70;56.20
53904;DHT22;39812;52.430;16.936;2023-05-14T09:05:31;20.60;55.20
53904;DHT22;39812;52.430;16.936;2023-05-14T09:07:58;21.00;53.60
53904;DHT22;39812;52.430;16.936;2023-05-14T09:10:23;21.20;54.00
53904;DHT22;39812;52.430;16.936;2023-05-14T09:12:49;21.60;53.90
53904;DHT22;39812;52.430;16.936;2023-05-14T09:15:16;21.80;53.50
53904;DHT22;39812;52.430;16.936;2023-05-14T09:17:42;22.30;52.00
53904;DHT22;39812;52.430;16.936;2023-05-14T09:20:10;22.60;50.90
53904;DHT22;39812;52.430;16.936;2023-05-14T09:22:37;22.90;50.60
53904;DHT22;39812;52.430;16.936;2023-05-14T09:25:08;22.80;50.10
53904;DHT22;39812;52.430;16.936;2023-05-14T09:27:35;22.60;50.70
53904;DHT22;39812;52.430;16.936;2023-05-14T09:30:11;22.40;50.40
53904;DHT22;39812;52.430;16.936;2023-05-14T09:32:39;22.90;50.10
53904;DHT22;39812;52.430;16.936;2023-05-14T09:35:12;23.20;50.00
53904;DHT22;39812;52.430;16.936;2023-05-14T09:37:45;23.50;49.40
53904;DHT22;39812;52.430;16.936;2023-05-14T09:40:11;23.80;49.20
53904;DHT22;39812;52.430;16.936;2023-05-14T09:42:37;23.90;49.20
53904;DHT22;39812;52.430;16.936;2023-05-14T09:45:03;23.60;49.40
53904;DHT22;39812;52.430;16.936;2023-05-14T09:47:29;23.40;50.10
53904;DHT22;39812;52.430;16.936;2023-05-14T09:49:56;23.50;50.10
53904;DHT22;39812;52.430;16.936;2023-05-14T09:52:25;23.60;49.80
53904;DHT22;39812;52.430;16.936;2023-05-14T09:54:53;23.60;49.80
53904;DHT22;39812;52.430;16.936;2023-05-14T09:57:19;23.70;49.60
53904;DHT22;39812;52.430;16.936;2023-05-14T09:59:46;23.90;49.80
53904;DHT22;39812;52.430;16.936;2023-05-14T10:02:34;23.50;48.60
53904;DHT22;39812;52.430;16.936;2023-05-14T10:05:03;23.10;48.80
53904;DHT22;39812;52.430;16.936;2023-05-14T10:07:37;22.50;49.70
53904;DHT22;39812;52.430;16.936;2023-05-14T10:10:06;22.50;50.10
53904;DHT22;39812;52.430;16.936;2023-05-14T10:12:33;22.40;50.50
53904;DHT22;39812;52.430;16.936;2023-05-14T10:15:05;22.30;51.10
53904;DHT22;39812;52.430;16.936;2023-05-14T10:17:34;22.40;51.00
53904;DHT22;39812;52.430;16.936;2023-05-14T10:20:02;22.60;50.70
53904;DHT22;39812;52.430;16.936;2023-05-14T10:22:33;22.70;50.70
53904;DHT22;39812;52.430;16.936;2023-05-14T10:25:02;22.90;50.20
53904;DHT22;39812;52.430;16.936;2023-05-14T10:27:29;22.80;49.40
53904;DHT22;39812;52.430;16.936;2023-05-14T10:29:55;22.90;49.30
53904;DHT22;39812;52.430;16.936;2023-05-14T10:32:22;23.10;48.40
53904;DHT22;39812;52.430;16.936;2023-05-14T10:34:52;23.50;48.30
53904;DHT22;39812;52.430;16.936;2023-05-14T10:37:23;24.10;47.60
53904;DHT22;39812;52.430;16.936;2023-05-14T10:40:01;24.40;47.10
53904;DHT22;39812;52.430;16.936;2023-05-14T10:42:37;24.60;46.60
53904;DHT22;39812;52.430;16.936;2023-05-14T10:45:14;24.30;46.70
53904;DHT22;39812;52.430;16.936;2023-05-14T10:47:45;24.40;46.30
53904;DHT22;39812;52.430;16.936;2023-05-14T10:50:13;24.60;46.00
53904;DHT22;39812;52.430;16.936;2023-05-14T10:52:43;24.80;46.40
53904;DHT22;39812;52.430;16.936;2023-05-14T10:55:12;25.20;45.90
53904;DHT22;39812;52.430;16.936;2023-05-14T10:57:40;25.50;45.70
53904;DHT22;39812;52.430;16.936;2023-05-14T11:00:06;25.50;45.60
53904;DHT22;39812;52.430;16.936;2023-05-14T11:02:38;25.40;45.60
53904;DHT22;39812;52.430;16.936;2023-05-14T11:05:06;25.90;45.50
53904;DHT22;39812;52.430;16.936;2023-05-14T11:07:38;25.10;44.80
53904;DHT22;39812;52.430;16.936;2023-05-14T11:12:34;24.30;46.70
53904;DHT22;39812;52.430;16.936;2023-05-14T11:15:04;24.00;46.80
53904;DHT22;39812;52.430;16.936;2023-05-14T11:17:31;24.20;47.10
53904;DHT22;39812;52.430;16.936;2023-05-14T11:19:57;24.10;47.10
53904;DHT22;39812;52.430;16.936;2023-05-14T11:22:23;24.40;46.60
53904;DHT22;39812;52.430;16.936;2023-05-14T11:24:49;25.20;46.30
53904;DHT22;39812;52.430;16.936;2023-05-14T11:27:20;25.50;45.50
53904;DHT22;39812;52.430;16.936;2023-05-14T11:29:46;25.00;45.80
53904;DHT22;39812;52.430;16.936;2023-05-14T11:32:13;25.20;45.60
53904;DHT22;39812;52.430;16.936;2023-05-14T11:34:40;25.70;45.60
53904;DHT22;39812;52.430;16.936;2023-05-14T11:37:07;26.20;45.10
53904;DHT22;39812;52.430;16.936;2023-05-14T11:39:33;26.40;44.60
53904;DHT22;39812;52.430;16.936;2023-05-14T11:42:02;27.20;44.00
53904;DHT22;39812;52.430;16.936;2023-05-14T11:44:29;26.90;43.50
53904;DHT22;39812;52.430;16.936;2023-05-14T11:46:56;28.50;43.10
53904;DHT22;39812;52.430;16.936;2023-05-14T11:49:26;29.00;41.60
53904;DHT22;39812;52.430;16.936;2023-05-14T11:52:01;29.00;41.90
53904;DHT22;39812;52.430;16.936;2023-05-14T11:54:27;28.00;41.90
53904;DHT22;39812;52.430;16.936;2023-05-14T11:56:56;26.70;43.10
53904;DHT22;39812;52.430;16.936;2023-05-14T11:59:31;25.70;44.30
53904;DHT22;39812;52.430;16.936;2023-05-14T12:02:00;24.80;45.70
53904;DHT22;39812;52.430;16.936;2023-05-14T12:04:27;24.20;46.60
53904;DHT22;39812;52.430;16.936;2023-05-14T12:06:53;24.30;46.70
53904;DHT22;39812;52.430;16.936;2023-05-14T12:09:20;24.40;45.70
53904;DHT22;39812;52.430;16.936;2023-05-14T12:11:47;23.90;45.90
53904;DHT22;39812;52.430;16.936;2023-05-14T12:14:18;23.30;47.60
53904;DHT22;39812;52.430;16.936;2023-05-14T12:16:45;22.70;48.90
53904;DHT22;39812;52.430;16.936;2023-05-14T12:19:13;22.10;49.90
53904;DHT22;39812;52.430;16.936;2023-05-14T12:21:41;22.00;50.30
53904;DHT22;39812;52.430;16.936;2023-05-14T12:24:18;21.80;50.80
53904;DHT22;39812;52.430;16.936;2023-05-14T12:26:46;21.80;50.80
53904;DHT22;39812;52.430;16.936;2023-05-14T12:29:13;21.80;50.60
53904;DHT22;39812;52.430;16.936;2023-05-14T12:31:48;22.10;50.90
53904;DHT22;39812;52.430;16.936;2023-05-14T12:34:15;22.40;50.40
53904;DHT22;39812;52.430;16.936;2023-05-14T12:36:41;23.00;49.90
53904;DHT22;39812;52.430;16.936;2023-05-14T12:39:08;23.60;49.00
53904;DHT22;39812;52.430;16.936;2023-05-14T12:41:34;23.90;48.50
53904;DHT22;39812;52.430;16.936;2023-05-14T12:43:59;24.50;47.90
53904;DHT22;39812;52.430;16.936;2023-05-14T12:46:26;25.00;47.20
53904;DHT22;39812;52.430;16.936;2023-05-14T12:48:53;27.00;45.20
53904;DHT22;39812;52.430;16.936;2023-05-14T12:51:19;27.20;44.70
53904;DHT22;39812;52.430;16.936;2023-05-14T12:53:44;27.90;44.40
53904;DHT22;39812;52.430;16.936;2023-05-14T12:56:11;27.30;44.30
53904;DHT22;39812;52.430;16.936;2023-05-14T12:58:37;26.40;45.00
53904;DHT22;39812;52.430;16.936;2023-05-14T13:01:04;25.10;46.20
53904;DHT22;39812;52.430;16.936;2023-05-14T13:03:29;24.10;47.90
53904;DHT22;39812;52.430;16.936;2023-05-14T13:05:55;23.20;49.30
53904;DHT22;39812;52.430;16.936;2023-05-14T13:08:21;22.60;50.10
53904;DHT22;39812;52.430;16.936;2023-05-14T13:10:50;22.30;51.00
53904;DHT22;39812;52.430;16.936;2023-05-14T13:13:15;22.20;51.20
53904;DHT22;39812;52.430;16.936;2023-05-14T13:15:41;22.30;51.20
53904;DHT22;39812;52.430;16.936;2023-05-14T13:18:07;22.40;51.30
53904;DHT22;39812;52.430;16.936;2023-05-14T13:20:33;22.70;51.10
53904;DHT22;39812;52.430;16.936;2023-05-14T13:22:59;23.20;50.50
53904;DHT22;39812;52.430;16.936;2023-05-14T13:25:25;23.80;49.90
53904;DHT22;39812;52.430;16.936;2023-05-14T13:27:50;28.10;46.60
53904;DHT22;39812;52.430;16.936;2023-05-14T13:30:19;32.10;42.30
53904;DHT22;39812;52.430;16.936;2023-05-14T13:32:45;31.10;40.20
53904;DHT22;39812;52.430;16.936;2023-05-14T13:35:11;29.80;41.00
53904;DHT22;39812;52.430;16.936;2023-05-14T13:37:37;28.10;42.70
53904;DHT22;39812;52.430;16.936;2023-05-14T13:40:03;29.10;42.50
53904;DHT22;39812;52.430;16.936;2023-05-14T13:42:31;28.40;43.40
53904;DHT22;39812;52.430;16.936;2023-05-14T13:44:58;28.40;43.30
53904;DHT22;39812;52.430;16.936;2023-05-14T13:47:24;27.20;43.30
53904;DHT22;39812;52.430;16.936;2023-05-14T13:49:54;27.20;43.70
53904;DHT22;39812;52.430;16.936;2023-05-14T13:52:21;26.10;44.90
53904;DHT22;39812;52.430;16.936;2023-05-14T13:54:47;26.00;45.40
53904;DHT22;39812;52.430;16.936;2023-05-14T13:57:13;26.20;45.30
53904;DHT22;39812;52.430;16.936;2023-05-14T13:59:38;28.40;44.70
53904;DHT22;39812;52.430;16.936;2023-05-14T14:02:04;31.70;40.90
53904;DHT22;39812;52.430;16.936;2023-05-14T14:04:30;32.50;39.90
53904;DHT22;39812;52.430;16.936;2023-05-14T14:06:56;30.60;40.00
53904;DHT22;39812;52.430;16.936;2023-05-14T14:09:23;29.30;41.30
53904;DHT22;39812;52.430;16.936;2023-05-14T14:11:48;27.40;43.20
53904;DHT22;39812;52.430;16.936;2023-05-14T14:14:14;27.50;44.40
53904;DHT22;39812;52.430;16.936;2023-05-14T14:16:40;31.30;42.60
53904;DHT22;39812;52.430;16.936;2023-05-14T14:19:06;31.10;41.20
53904;DHT22;39812;52.430;16.936;2023-05-14T14:21:31;31.10;40.60
53904;DHT22;39812;52.430;16.936;2023-05-14T14:23:58;30.00;41.20
53904;DHT22;39812;52.430;16.936;2023-05-14T14:26:24;31.00;40.80
53904;DHT22;39812;52.430;16.936;2023-05-14T14:28:52;32.80;40.00
53904;DHT22;39812;52.430;16.936;2023-05-14T14:31:18;32.70;39.40
53904;DHT22;39812;52.430;16.936;2023-05-14T14:33:44;31.80;39.20
53904;DHT22;39812;52.430;16.936;2023-05-14T14:36:10;30.90;40.00
53904;DHT22;39812;52.430;16.936;2023-05-14T14:38:35;30.00;40.90
53904;DHT22;39812;52.430;16.936;2023-05-14T14:41:03;28.80;41.70
53904;DHT22;39812;52.430;16.936;2023-05-14T14:43:31;27.90;43.00
53904;DHT22;39812;52.430;16.936;2023-05-14T14:45:57;27.40;43.40
53904;DHT22;39812;52.430;16.936;2023-05-14T14:48:26;26.70;45.10
53904;DHT22;39812;52.430;16.936;2023-05-14T14:50:52;26.00;45.60
53904;DHT22;39812;52.430;16.936;2023-05-14T14:53:19;26.90;45.90
53904;DHT22;39812;52.430;16.936;2023-05-14T14:55:46;29.70;43.90
53904;DHT22;39812;52.430;16.936;2023-05-14T14:58:12;33.10;40.80
53904;DHT22;39812;52.430;16.936;2023-05-14T15:00:38;36.40;38.10
53904;DHT22;39812;52.430;16.936;2023-05-14T15:03:05;38.60;36.40
53904;DHT22;39812;52.430;16.936;2023-05-14T15:05:30;40.40;34.80
53904;DHT22;39812;52.430;16.936;2023-05-14T15:07:56;40.10;33.90
53904;DHT22;39812;52.430;16.936;2023-05-14T15:10:22;38.10;33.50
53904;DHT22;39812;52.430;16.936;2023-05-14T15:12:47;37.30;35.10
53904;DHT22;39812;52.430;16.936;2023-05-14T15:15:13;38.50;34.60
53904;DHT22;39812;52.430;16.936;2023-05-14T15:17:38;36.90;35.00
53904;DHT22;39812;52.430;16.936;2023-05-14T15:20:04;35.30;35.70
53904;DHT22;39812;52.430;16.936;2023-05-14T15:22:32;33.20;37.30